createdAt,value
2022-11-15T00:00:17.000Z,79.9
2022-11-15T00:01:30.000Z,79.9
2022-11-15T00:02:42.000Z,79.9
2022-11-15T00:03:54.000Z,79.9
2022-11-15T00:05:06.000Z,79.9
2022-11-15T00:06:18.000Z,79.9
2022-11-15T00:07:29.000Z,79.9
2022-11-15T00:08:42.000Z,79.9
2022-11-15T00:09:54.000Z,79.9
2022-11-15T00:11:06.000Z,79.9
2022-11-15T00:12:18.000Z,79.9
2022-11-15T00:13:30.000Z,79.9
2022-11-15T00:14:43.000Z,79.9
2022-11-15T00:15:55.000Z,79.9
2022-11-15T00:17:07.000Z,80
2022-11-15T00:18:19.000Z,79.9
2022-11-15T00:19:31.000Z,80
2022-11-15T00:20:44.000Z,80
2022-11-15T00:21:56.000Z,79.9
2022-11-15T00:23:07.000Z,79.9
2022-11-15T00:24:19.000Z,79.9
2022-11-15T00:25:31.000Z,80
2022-11-15T00:26:43.000Z,80
2022-11-15T00:27:56.000Z,79.9
2022-11-15T00:29:08.000Z,79.9
2022-11-15T00:30:20.000Z,80
2022-11-15T00:31:32.000Z,80
2022-11-15T00:32:44.000Z,80
2022-11-15T00:33:57.000Z,80
2022-11-15T00:35:09.000Z,80
2022-11-15T00:36:21.000Z,80
2022-11-15T00:37:33.000Z,80
2022-11-15T00:38:44.000Z,80
2022-11-15T00:39:57.000Z,80
2022-11-15T00:41:09.000Z,80
2022-11-15T00:42:21.000Z,80
2022-11-15T00:43:33.000Z,80
2022-11-15T00:44:45.000Z,80
2022-11-15T00:45:57.000Z,80
2022-11-15T00:47:10.000Z,80
2022-11-15T00:48:22.000Z,80
2022-11-15T00:49:34.000Z,80
2022-11-15T00:50:46.000Z,80
2022-11-15T00:51:58.000Z,80
2022-11-15T00:53:11.000Z,80
2022-11-15T00:54:22.000Z,80
2022-11-15T00:55:34.000Z,80
2022-11-15T00:56:46.000Z,80
2022-11-15T00:57:58.000Z,80
2022-11-15T00:59:10.000Z,80
2022-11-15T01:00:23.000Z,80
2022-11-15T01:01:35.000Z,80
2022-11-15T01:02:47.000Z,80
2022-11-15T01:03:59.000Z,80
2022-11-15T01:05:11.000Z,80
2022-11-15T01:06:24.000Z,80
2022-11-15T01:07:36.000Z,80
2022-11-15T01:08:48.000Z,80
2022-11-15T01:09:59.000Z,80
2022-11-15T01:11:11.000Z,80
2022-11-15T01:12:24.000Z,80
2022-11-15T01:13:36.000Z,80
2022-11-15T01:14:48.000Z,80
2022-11-15T01:16:00.000Z,80
2022-11-15T01:17:12.000Z,80
2022-11-15T01:18:24.000Z,80
2022-11-15T01:19:37.000Z,80
2022-11-15T01:20:49.000Z,80
2022-11-15T01:22:01.000Z,80
2022-11-15T01:23:13.000Z,80
2022-11-15T01:24:25.000Z,80
2022-11-15T01:25:37.000Z,80
2022-11-15T01:26:49.000Z,80
2022-11-15T01:28:01.000Z,80
2022-11-15T01:29:13.000Z,80
2022-11-15T01:30:25.000Z,80
2022-11-15T01:31:38.000Z,80
2022-11-15T01:32:50.000Z,80
2022-11-15T01:34:02.000Z,80
2022-11-15T01:35:14.000Z,80
2022-11-15T01:36:26.000Z,80
2022-11-15T01:37:38.000Z,80
2022-11-15T01:38:51.000Z,80
2022-11-15T01:40:03.000Z,80
2022-11-15T01:41:14.000Z,80
2022-11-15T01:42:26.000Z,80
2022-11-15T01:43:38.000Z,80
2022-11-15T01:44:51.000Z,80
2022-11-15T01:46:03.000Z,80.1
2022-11-15T01:47:15.000Z,80
2022-11-15T01:48:27.000Z,80
2022-11-15T01:49:39.000Z,80.1
2022-11-15T01:50:52.000Z,80.1
2022-11-15T01:52:04.000Z,80.1
2022-11-15T01:53:16.000Z,80.1
2022-11-15T01:54:28.000Z,80.1
2022-11-15T01:55:40.000Z,80.1
2022-11-15T01:56:51.000Z,80.1
2022-11-15T01:58:04.000Z,80.1
2022-11-15T01:59:16.000Z,80.1
2022-11-15T02:00:28.000Z,80.1
2022-11-15T02:01:40.000Z,80.1
2022-11-15T02:04:05.000Z,80.1
2022-11-15T02:05:17.000Z,80.1
2022-11-15T02:06:29.000Z,80.1
2022-11-15T02:07:41.000Z,80.1
2022-11-15T02:08:53.000Z,80.1
2022-11-15T02:09:30.398Z,80.1
2022-11-15T02:10:06.000Z,80.1
2022-11-15T02:11:18.000Z,80.1
2022-11-15T02:12:29.000Z,80.1
2022-11-15T02:13:41.000Z,80.1
2022-11-15T02:14:53.000Z,80.1
2022-11-15T02:16:05.000Z,80.1
2022-11-15T02:17:18.000Z,80.1
2022-11-15T02:18:30.000Z,80.1
2022-11-15T02:19:42.000Z,80.1
2022-11-15T02:20:54.000Z,80.1
2022-11-15T02:22:06.000Z,80.1
2022-11-15T02:23:19.000Z,80.1
2022-11-15T02:24:31.000Z,80.1
2022-11-15T02:25:43.000Z,80.1
2022-11-15T02:26:55.000Z,80.1
2022-11-15T02:28:06.000Z,80.1
2022-11-15T02:29:19.000Z,80.1
2022-11-15T02:30:31.000Z,80.1
2022-11-15T02:31:43.000Z,80.1
2022-11-15T02:32:55.000Z,80.1
2022-11-15T02:34:07.000Z,80.1
2022-11-15T02:35:19.000Z,80.1
2022-11-15T02:36:32.000Z,80.1
2022-11-15T02:37:44.000Z,80.1
2022-11-15T02:38:56.000Z,80.1
2022-11-15T02:40:08.000Z,80.1
2022-11-15T02:41:20.000Z,80.1
2022-11-15T02:42:33.000Z,80.1
2022-11-15T02:43:45.000Z,80.1
2022-11-15T02:44:57.000Z,80.1
2022-11-15T02:46:08.000Z,80.1
2022-11-15T02:47:20.000Z,80.2
2022-11-15T02:48:32.000Z,80.1
2022-11-15T02:49:45.000Z,80.1
2022-11-15T02:50:57.000Z,80.2
2022-11-15T02:52:09.000Z,80.1
2022-11-15T02:53:20.000Z,80.1
2022-11-15T02:54:32.000Z,80.1
2022-11-15T02:55:45.000Z,80.1
2022-11-15T02:56:57.000Z,80.1
2022-11-15T02:58:09.000Z,80.1
2022-11-15T02:59:21.000Z,80.1
2022-11-15T03:00:33.000Z,80.2
2022-11-15T03:01:46.000Z,80.2
2022-11-15T03:02:58.000Z,80.1
2022-11-15T03:04:10.000Z,80.1
2022-11-15T03:05:22.000Z,80.1
2022-11-15T03:06:34.000Z,80.1
2022-11-15T03:08:59.000Z,80.1
2022-11-15T03:10:10.000Z,80.1
2022-11-15T03:11:22.000Z,80.1
2022-11-15T03:12:34.000Z,80.1
2022-11-15T03:13:46.000Z,80.1
2022-11-15T03:14:24.521Z,80.1
2022-11-15T03:14:59.000Z,80.1
2022-11-15T03:16:11.000Z,80.1
2022-11-15T03:17:23.000Z,80.1
2022-11-15T03:18:35.000Z,80.1
2022-11-15T03:19:47.000Z,80.1
2022-11-15T03:22:12.000Z,80.1
2022-11-15T03:23:24.000Z,80.1
2022-11-15T03:24:36.000Z,80.1
2022-11-15T03:25:48.000Z,80.1
2022-11-15T03:26:59.000Z,80.1
2022-11-15T03:27:37.585Z,80.1
2022-11-15T03:28:12.000Z,80.1
2022-11-15T03:29:24.000Z,80.1
2022-11-15T03:30:36.000Z,80.1
2022-11-15T03:31:48.000Z,80.1
2022-11-15T03:33:00.000Z,80.1
2022-11-15T03:34:13.000Z,80.1
2022-11-15T03:35:25.000Z,80.1
2022-11-15T03:36:37.000Z,80.1
2022-11-15T03:37:49.000Z,80.1
2022-11-15T03:39:01.000Z,80.1
2022-11-15T03:40:14.000Z,80.1
2022-11-15T03:41:26.000Z,80.1
2022-11-15T03:42:37.000Z,80.1
2022-11-15T03:43:49.000Z,80.1
2022-11-15T03:45:01.000Z,80.1
2022-11-15T03:46:13.000Z,80.1
2022-11-15T03:47:26.000Z,80.1
2022-11-15T03:48:38.000Z,80.1
2022-11-15T03:49:50.000Z,80.1
2022-11-15T03:51:02.000Z,80.1
2022-11-15T03:52:14.000Z,80.1
2022-11-15T03:53:27.000Z,80.1
2022-11-15T03:54:39.000Z,80.1
2022-11-15T03:55:51.000Z,80.1
2022-11-15T03:57:03.000Z,80.1
2022-11-15T03:58:14.000Z,80.1
2022-11-15T03:59:27.000Z,80.1
2022-11-15T04:00:39.000Z,80.1
2022-11-15T04:01:51.000Z,80.1
2022-11-15T04:03:03.000Z,80.1
2022-11-15T04:04:15.000Z,80.1
2022-11-15T04:05:27.000Z,80.1
2022-11-15T04:06:40.000Z,80.1
2022-11-15T04:07:52.000Z,80.1
2022-11-15T04:09:04.000Z,80.1
2022-11-15T04:10:16.000Z,80.1
2022-11-15T04:11:28.000Z,80.1
2022-11-15T04:12:41.000Z,80.1
2022-11-15T04:13:52.000Z,80.1
2022-11-15T04:15:04.000Z,80.1
2022-11-15T04:16:16.000Z,80.1
2022-11-15T04:17:28.000Z,80.1
2022-11-15T04:18:41.000Z,80.1
2022-11-15T04:19:53.000Z,80.1
2022-11-15T04:21:05.000Z,80.1
2022-11-15T04:22:17.000Z,80.1
2022-11-15T04:23:29.000Z,80.1
2022-11-15T04:24:41.000Z,80.1
2022-11-15T04:25:54.000Z,80.1
2022-11-15T04:28:18.000Z,80.1
2022-11-15T04:29:29.000Z,80.1
2022-11-15T04:30:41.000Z,80.1
2022-11-15T04:31:54.000Z,80.1
2022-11-15T04:33:06.000Z,80.1
2022-11-15T04:33:43.899Z,80.1
2022-11-15T04:34:18.000Z,80.1
2022-11-15T04:35:30.000Z,80.1
2022-11-15T04:36:42.000Z,80.1
2022-11-15T04:37:54.000Z,80.1
2022-11-15T04:39:07.000Z,80.1
2022-11-15T04:40:19.000Z,80.1
2022-11-15T04:41:31.000Z,80.1
2022-11-15T04:42:43.000Z,80.1
2022-11-15T04:45:07.000Z,80.1
2022-11-15T04:46:19.000Z,80.1
2022-11-15T04:47:31.000Z,80.1
2022-11-15T04:48:43.000Z,80.1
2022-11-15T04:49:55.000Z,80.1
2022-11-15T04:50:33.524Z,80.1
2022-11-15T04:51:08.000Z,80.1
2022-11-15T04:52:20.000Z,80.1
2022-11-15T04:53:32.000Z,80.1
2022-11-15T04:54:44.000Z,80.1
2022-11-15T04:55:56.000Z,80.1
2022-11-15T04:57:08.000Z,80.1
2022-11-15T04:58:21.000Z,80.1
2022-11-15T04:59:33.000Z,80.1
2022-11-15T05:00:44.000Z,80.1
2022-11-15T05:01:56.000Z,80.1
2022-11-15T05:03:08.000Z,80.1
2022-11-15T05:04:21.000Z,80.1
2022-11-15T05:05:33.000Z,80.1
2022-11-15T05:06:45.000Z,80.1
2022-11-15T05:07:57.000Z,80.1
2022-11-15T05:09:09.000Z,80.1
2022-11-15T05:10:22.000Z,80.1
2022-11-15T05:11:34.000Z,80.1
2022-11-15T05:12:46.000Z,80.1
2022-11-15T05:13:58.000Z,80.1
2022-11-15T05:15:10.000Z,80.1
2022-11-15T05:16:21.000Z,80.1
2022-11-15T05:17:34.000Z,80.1
2022-11-15T05:18:46.000Z,80.1
2022-11-15T05:19:58.000Z,80.1
2022-11-15T05:21:10.000Z,80.1
2022-11-15T05:22:22.000Z,80.1
2022-11-15T05:23:35.000Z,80.1
2022-11-15T05:24:47.000Z,80.1
2022-11-15T05:25:59.000Z,80.1
2022-11-15T05:27:11.000Z,80.1
2022-11-15T05:28:23.000Z,80.1
2022-11-15T05:29:36.000Z,80.1
2022-11-15T05:30:48.000Z,80.1
2022-11-15T05:31:59.000Z,80.1
2022-11-15T05:33:11.000Z,80.1
2022-11-15T05:34:23.000Z,80.1
2022-11-15T05:35:35.000Z,80.1
2022-11-15T05:36:48.000Z,80.1
2022-11-15T05:38:00.000Z,80.1
2022-11-15T05:39:12.000Z,80.1
2022-11-15T05:40:24.000Z,80.1
2022-11-15T05:41:36.000Z,80.1
2022-11-15T05:42:49.000Z,80.1
2022-11-15T05:44:01.000Z,80.1
2022-11-15T05:45:13.000Z,80.1
2022-11-15T05:46:25.000Z,80.1
2022-11-15T05:47:36.000Z,80.1
2022-11-15T05:48:49.000Z,80.1
2022-11-15T05:50:01.000Z,80.1
2022-11-15T05:51:13.000Z,80.1
2022-11-15T05:52:25.000Z,80.1
2022-11-15T05:53:37.000Z,80.1
2022-11-15T05:54:49.000Z,80.1
2022-11-15T05:56:02.000Z,80.1
2022-11-15T05:57:14.000Z,80.1
2022-11-15T05:58:26.000Z,80.1
2022-11-15T05:59:38.000Z,80.1
2022-11-15T06:00:50.000Z,80.1
2022-11-15T06:02:03.000Z,80.1
2022-11-15T06:03:14.000Z,80.1
2022-11-15T06:04:26.000Z,80.1
2022-11-15T06:05:38.000Z,80.1
2022-11-15T06:06:50.000Z,80.1
2022-11-15T06:08:03.000Z,80.1
2022-11-15T06:09:15.000Z,80.1
2022-11-15T06:10:27.000Z,80.1
2022-11-15T06:11:39.000Z,80.1
2022-11-15T06:12:51.000Z,80.1
2022-11-15T06:14:03.000Z,80.1
2022-11-15T06:15:16.000Z,80.1
2022-11-15T06:16:28.000Z,80.1
2022-11-15T06:17:40.000Z,80.1
2022-11-15T06:18:52.000Z,80.1
2022-11-15T06:20:03.000Z,80.1
2022-11-15T06:21:16.000Z,80.1
2022-11-15T06:22:28.000Z,80.1
2022-11-15T06:23:40.000Z,80.1
2022-11-15T06:24:52.000Z,80.1
2022-11-15T06:27:17.000Z,80.1
2022-11-15T06:28:29.000Z,80.1
2022-11-15T06:29:41.000Z,80.1
2022-11-15T06:30:53.000Z,80.1
2022-11-15T06:32:05.000Z,80.1
2022-11-15T06:32:42.475Z,80.1
2022-11-15T06:33:17.000Z,80.1
2022-11-15T06:34:30.000Z,80.1
2022-11-15T06:35:41.000Z,80.1
2022-11-15T06:36:53.000Z,80.1
2022-11-15T06:38:05.000Z,80.1
2022-11-15T06:39:17.000Z,80.1
2022-11-15T06:40:30.000Z,80.1
2022-11-15T06:41:42.000Z,80.1
2022-11-15T06:42:54.000Z,80.1
2022-11-15T06:44:06.000Z,80.1
2022-11-15T06:45:18.000Z,80.1
2022-11-15T06:46:30.000Z,80.1
2022-11-15T06:47:43.000Z,80.1
2022-11-15T06:48:55.000Z,80.1
2022-11-15T06:50:07.000Z,80.1
2022-11-15T06:51:18.000Z,80.1
2022-11-15T06:52:30.000Z,80.1
2022-11-15T06:53:43.000Z,80.1
2022-11-15T06:54:54.000Z,80.1
2022-11-15T06:56:06.000Z,80.1
2022-11-15T06:57:18.000Z,80.1
2022-11-15T06:58:30.000Z,80.1
2022-11-15T06:59:43.000Z,80.1
2022-11-15T07:00:55.000Z,80.1
2022-11-15T07:02:07.000Z,80.1
2022-11-15T07:03:19.000Z,80.1
2022-11-15T07:04:31.000Z,80.1
2022-11-15T07:05:43.000Z,80.1
2022-11-15T07:06:56.000Z,80.1
2022-11-15T07:08:08.000Z,80.1
2022-11-15T07:09:20.000Z,80.1
2022-11-15T07:10:31.000Z,80.1
2022-11-15T07:11:43.000Z,80.1
2022-11-15T07:12:56.000Z,80.1
2022-11-15T07:14:08.000Z,80.1
2022-11-15T07:15:20.000Z,80.1
2022-11-15T07:16:32.000Z,80.1
2022-11-15T07:17:44.000Z,80.1
2022-11-15T07:18:57.000Z,80.1
2022-11-15T07:20:09.000Z,80.1
2022-11-15T07:21:21.000Z,80.1
2022-11-15T07:22:33.000Z,80.1
2022-11-15T07:23:45.000Z,80.1
2022-11-15T07:24:57.000Z,80.1
2022-11-15T07:26:09.000Z,80.1
2022-11-15T07:27:21.000Z,80.1
2022-11-15T07:28:33.000Z,80.1
2022-11-15T07:29:45.000Z,80.1
2022-11-15T07:30:57.000Z,80.1
2022-11-15T07:32:10.000Z,80.1
2022-11-15T07:33:22.000Z,80.1
2022-11-15T07:34:34.000Z,80.1
2022-11-15T07:35:46.000Z,80.1
2022-11-15T07:36:58.000Z,80.1
2022-11-15T07:38:10.000Z,80
2022-11-15T07:39:23.000Z,80
2022-11-15T07:40:35.000Z,80
2022-11-15T07:41:46.000Z,80
2022-11-15T07:42:58.000Z,80
2022-11-15T07:44:10.000Z,80
2022-11-15T07:45:23.000Z,80
2022-11-15T07:46:35.000Z,80
2022-11-15T07:47:47.000Z,80
2022-11-15T07:48:59.000Z,80
2022-11-15T07:50:11.000Z,80
2022-11-15T07:51:24.000Z,80
2022-11-15T07:52:36.000Z,80
2022-11-15T07:53:48.000Z,80
2022-11-15T07:55:00.000Z,80
2022-11-15T07:56:12.000Z,80.1
2022-11-15T07:57:24.000Z,80
2022-11-15T07:58:36.000Z,80.1
2022-11-15T07:59:48.000Z,80.1
2022-11-15T08:01:00.000Z,80.1
2022-11-15T08:02:12.000Z,80.1
2022-11-15T08:03:24.000Z,80.1
2022-11-15T08:04:37.000Z,80.1
2022-11-15T08:05:49.000Z,80.1
2022-11-15T08:07:01.000Z,80
2022-11-15T08:09:25.000Z,80
2022-11-15T08:11:50.000Z,80
2022-11-15T08:14:13.000Z,80.2
2022-11-15T08:14:51.344Z,80
2022-11-15T08:15:25.000Z,80.2
2022-11-15T08:16:37.000Z,80.2
2022-11-15T08:17:15.719Z,80
2022-11-15T08:19:02.000Z,80.2
2022-11-15T08:19:40.000Z,80
2022-11-15T08:20:14.000Z,80.2
2022-11-15T08:21:26.000Z,80.2
2022-11-15T08:22:38.000Z,80.2
2022-11-15T08:23:51.000Z,80.3
2022-11-15T08:24:27.000Z,80.2
2022-11-15T08:25:03.000Z,80.3
2022-11-15T08:26:15.000Z,80.2
2022-11-15T08:27:27.000Z,80.2
2022-11-15T08:28:39.000Z,80.2
2022-11-15T08:29:50.000Z,80.2
2022-11-15T08:31:03.000Z,80.2
2022-11-15T08:32:15.000Z,80.2
2022-11-15T08:33:27.000Z,80.2
2022-11-15T08:34:39.000Z,80.2
2022-11-15T08:35:51.000Z,80.2
2022-11-15T08:37:04.000Z,80.1
2022-11-15T08:38:16.000Z,80.1
2022-11-15T08:39:28.000Z,80.1
2022-11-15T08:40:40.000Z,80
2022-11-15T08:41:52.000Z,80
2022-11-15T08:43:04.000Z,79.8
2022-11-15T08:44:17.000Z,79.6
2022-11-15T08:45:28.000Z,79.5
2022-11-15T08:46:40.000Z,79.5
2022-11-15T08:47:52.000Z,79.5
2022-11-15T08:49:04.000Z,79.5
2022-11-15T08:50:17.000Z,79.5
2022-11-15T08:51:29.000Z,79.6
2022-11-15T08:52:41.000Z,79.6
2022-11-15T08:53:53.000Z,79.7
2022-11-15T08:55:05.000Z,79.7
2022-11-15T08:56:18.000Z,79.7
2022-11-15T08:57:30.000Z,79.7
2022-11-15T08:58:42.000Z,79.7
2022-11-15T08:59:54.000Z,79.7
2022-11-15T09:01:05.000Z,79.7
2022-11-15T09:02:17.000Z,79.7
2022-11-15T09:03:30.000Z,79.7
2022-11-15T09:04:42.000Z,79.5
2022-11-15T09:05:54.000Z,79.5
2022-11-15T09:07:06.000Z,79.4
2022-11-15T09:08:18.000Z,79.3
2022-11-15T09:09:31.000Z,79.1
2022-11-15T09:10:43.000Z,78.9
2022-11-15T09:11:55.000Z,78.8
2022-11-15T09:13:07.000Z,78.7
2022-11-15T09:14:19.000Z,78.6
2022-11-15T09:15:31.000Z,78.6
2022-11-15T09:16:43.000Z,78.6
2022-11-15T09:17:55.000Z,78.5
2022-11-15T09:19:07.000Z,78.5
2022-11-15T09:20:19.000Z,78.3
2022-11-15T09:21:31.000Z,78.3
2022-11-15T09:22:44.000Z,78.5
2022-11-15T09:23:56.000Z,78.5
2022-11-15T09:25:08.000Z,78.8
2022-11-15T09:26:20.000Z,78.9
2022-11-15T09:27:32.000Z,79
2022-11-15T09:28:45.000Z,79.1
2022-11-15T09:29:57.000Z,79.2
2022-11-15T09:31:09.000Z,79.3
2022-11-15T09:32:21.000Z,79.4
2022-11-15T09:33:32.000Z,79.5
2022-11-15T09:34:44.000Z,79.6
2022-11-15T09:35:57.000Z,79.7
2022-11-15T09:37:09.000Z,79.7
2022-11-15T09:38:21.000Z,79.7
2022-11-15T09:39:33.000Z,79.8
2022-11-15T09:40:45.000Z,79.7
2022-11-15T09:41:58.000Z,79.8
2022-11-15T09:43:10.000Z,79.8
2022-11-15T09:44:22.000Z,80
2022-11-15T09:45:34.000Z,80
2022-11-15T09:46:46.000Z,80
2022-11-15T09:47:58.000Z,80
2022-11-15T09:49:10.000Z,80.2
2022-11-15T09:50:22.000Z,80.2
2022-11-15T09:51:34.000Z,80.2
2022-11-15T09:52:46.000Z,80.3
2022-11-15T09:53:58.000Z,80.3
2022-11-15T09:55:11.000Z,80.4
2022-11-15T09:56:23.000Z,80.4
2022-11-15T09:57:35.000Z,80.4
2022-11-15T09:58:47.000Z,80.4
2022-11-15T09:59:59.000Z,80.4
2022-11-15T10:01:12.000Z,80.4
2022-11-15T10:02:24.000Z,80.5
2022-11-15T10:03:36.000Z,80.5
2022-11-15T10:04:48.000Z,80.5
2022-11-15T10:05:59.000Z,80.5
2022-11-15T10:07:11.000Z,80.5
2022-11-15T10:08:24.000Z,80.5
2022-11-15T10:09:36.000Z,80.5
2022-11-15T10:10:48.000Z,80.5
2022-11-15T10:12:00.000Z,80.5
2022-11-15T10:13:12.000Z,80.5
2022-11-15T10:14:25.000Z,80.5
2022-11-15T10:15:37.000Z,80.5
2022-11-15T10:16:49.000Z,80.5
2022-11-15T10:18:01.000Z,80.5
2022-11-15T10:19:13.000Z,80.5
2022-11-15T10:20:26.000Z,80.5
2022-11-15T10:21:37.000Z,80.5
2022-11-15T10:22:49.000Z,80.5
2022-11-15T10:24:01.000Z,80.6
2022-11-15T10:25:13.000Z,80.5
2022-11-15T10:26:25.000Z,80.5
2022-11-15T10:27:38.000Z,80.5
2022-11-15T10:28:50.000Z,80.6
2022-11-15T10:30:02.000Z,80.5
2022-11-15T10:31:14.000Z,80.4
2022-11-15T10:32:26.000Z,80.5
2022-11-15T10:33:39.000Z,80.4
2022-11-15T10:34:51.000Z,80.5
2022-11-15T10:36:03.000Z,80.5
2022-11-15T10:37:14.000Z,80.5
2022-11-15T10:38:26.000Z,80.5
2022-11-15T10:39:38.000Z,80.5
2022-11-15T10:40:51.000Z,80.5
2022-11-15T10:42:03.000Z,80.4
2022-11-15T10:43:15.000Z,80.4
2022-11-15T10:44:27.000Z,80.4
2022-11-15T10:45:39.000Z,80.5
2022-11-15T10:46:52.000Z,80.4
2022-11-15T10:48:04.000Z,80.5
2022-11-15T10:49:16.000Z,80.5
2022-11-15T10:50:28.000Z,80.5
2022-11-15T10:51:40.000Z,80.5
2022-11-15T10:52:52.000Z,80.5
2022-11-15T10:54:04.000Z,80.5
2022-11-15T10:55:16.000Z,80.5
2022-11-15T10:56:27.000Z,80.5
2022-11-15T10:57:39.000Z,80.5
2022-11-15T10:58:51.000Z,80.5
2022-11-15T11:00:04.000Z,80.5
2022-11-15T11:01:16.000Z,80.5
2022-11-15T11:02:28.000Z,80.5
2022-11-15T11:03:40.000Z,80.5
2022-11-15T11:04:52.000Z,80.5
2022-11-15T11:06:05.000Z,80.5
2022-11-15T11:08:29.000Z,80.5
2022-11-15T11:09:41.000Z,80.5
2022-11-15T11:10:53.000Z,80.5
2022-11-15T11:12:04.000Z,80.5
2022-11-15T11:13:17.000Z,80.5
2022-11-15T11:13:55.000Z,80.5
2022-11-15T11:14:29.000Z,80.5
2022-11-15T11:15:41.000Z,80.5
2022-11-15T11:16:53.000Z,80.5
2022-11-15T11:18:05.000Z,80.5
2022-11-15T11:19:18.000Z,80.5
2022-11-15T11:20:30.000Z,80.5
2022-11-15T11:21:42.000Z,80.5
2022-11-15T11:22:54.000Z,80.5
2022-11-15T11:24:06.000Z,80.5
2022-11-15T11:25:19.000Z,80.5
2022-11-15T11:26:31.000Z,80.5
2022-11-15T11:27:42.000Z,80.5
2022-11-15T11:28:54.000Z,80.5
2022-11-15T11:30:06.000Z,80.5
2022-11-15T11:31:18.000Z,80.5
2022-11-15T11:32:31.000Z,80.5
2022-11-15T11:33:43.000Z,80.4
2022-11-15T11:34:55.000Z,80.4
2022-11-15T11:36:07.000Z,80.4
2022-11-15T11:37:19.000Z,80.4
2022-11-15T11:38:32.000Z,80.4
2022-11-15T11:39:44.000Z,80.4
2022-11-15T11:40:56.000Z,80.4
2022-11-15T11:42:08.000Z,80.4
2022-11-15T11:43:19.000Z,80.4
2022-11-15T11:44:31.000Z,80.4
2022-11-15T11:45:44.000Z,80.4
2022-11-15T11:46:56.000Z,80.4
2022-11-15T11:48:08.000Z,80.4
2022-11-15T11:49:20.000Z,80.4
2022-11-15T11:50:32.000Z,80.4
2022-11-15T11:51:45.000Z,80.4
2022-11-15T11:52:57.000Z,80.4
2022-11-15T11:54:09.000Z,80.4
2022-11-15T11:55:21.000Z,80.4
2022-11-15T11:56:33.000Z,80.5
2022-11-15T11:57:46.000Z,80.5
2022-11-15T11:58:57.000Z,80.4
2022-11-15T12:00:09.000Z,80.4
2022-11-15T12:01:21.000Z,80.4
2022-11-15T12:02:33.000Z,80.4
2022-11-15T12:03:45.000Z,80.4
2022-11-15T12:04:58.000Z,80.4
2022-11-15T12:06:10.000Z,80.4
2022-11-15T12:07:22.000Z,80.4
2022-11-15T12:08:34.000Z,80.4
2022-11-15T12:09:46.000Z,80.4
2022-11-15T12:10:59.000Z,80.4
2022-11-15T12:12:11.000Z,80.4
2022-11-15T12:13:23.000Z,80.4
2022-11-15T12:14:34.000Z,80.4
2022-11-15T12:15:46.000Z,80.4
2022-11-15T12:16:58.000Z,80.3
2022-11-15T12:18:11.000Z,80.3
2022-11-15T12:19:23.000Z,80.3
2022-11-15T12:20:35.000Z,80.3
2022-11-15T12:21:47.000Z,80.3
2022-11-15T12:22:59.000Z,80.3
2022-11-15T12:24:12.000Z,80.3
2022-11-15T12:25:24.000Z,80.3
2022-11-15T12:26:36.000Z,80.3
2022-11-15T12:27:48.000Z,80.3
2022-11-15T12:29:00.000Z,80.3
2022-11-15T12:30:12.000Z,80.3
2022-11-15T12:31:24.000Z,80.3
2022-11-15T12:32:36.000Z,80.3
2022-11-15T12:33:48.000Z,80.3
2022-11-15T12:35:00.000Z,80.4
2022-11-15T12:36:12.000Z,80.4
2022-11-15T12:37:25.000Z,80.4
2022-11-15T12:38:37.000Z,80.4
2022-11-15T12:39:49.000Z,80.4
2022-11-15T12:41:01.000Z,80.3
2022-11-15T12:42:13.000Z,80.3
2022-11-15T12:43:26.000Z,80.3
2022-11-15T12:44:38.000Z,80.3
2022-11-15T12:45:49.000Z,80.3
2022-11-15T12:47:01.000Z,80.3
2022-11-15T12:48:13.000Z,80.4
2022-11-15T12:49:25.000Z,80.3
2022-11-15T12:50:38.000Z,80.4
2022-11-15T12:51:50.000Z,80.3
2022-11-15T12:53:02.000Z,80.3
2022-11-15T12:54:14.000Z,80.3
2022-11-15T12:55:26.000Z,80.3
2022-11-15T12:56:39.000Z,80.3
2022-11-15T12:57:51.000Z,80.3
2022-11-15T12:59:03.000Z,80.3
2022-11-15T13:00:15.000Z,80.3
2022-11-15T13:01:26.000Z,80.3
2022-11-15T13:02:39.000Z,80.3
2022-11-15T13:03:51.000Z,80.3
2022-11-15T13:06:15.000Z,80.3
2022-11-15T13:07:27.000Z,80.3
2022-11-15T13:08:39.000Z,80.4
2022-11-15T13:09:52.000Z,80.4
2022-11-15T13:11:04.000Z,80.4
2022-11-15T13:11:41.306Z,80.3
2022-11-15T13:12:16.000Z,80.4
2022-11-15T13:13:28.000Z,80.4
2022-11-15T13:14:40.000Z,80.4
2022-11-15T13:15:53.000Z,80.4
2022-11-15T13:17:04.000Z,80.4
2022-11-15T13:18:16.000Z,80.4
2022-11-15T13:19:28.000Z,80.4
2022-11-15T13:20:40.000Z,80.5
2022-11-15T13:21:52.000Z,80.5
2022-11-15T13:23:05.000Z,80.5
2022-11-15T13:24:17.000Z,80.5
2022-11-15T13:25:29.000Z,80.5
2022-11-15T13:26:41.000Z,80.5
2022-11-15T13:27:53.000Z,80.5
2022-11-15T13:29:06.000Z,80.5
2022-11-15T13:30:18.000Z,80.5
2022-11-15T13:31:30.000Z,80.5
2022-11-15T13:32:42.000Z,80.5
2022-11-15T13:33:53.000Z,80.6
2022-11-15T13:35:06.000Z,80.6
2022-11-15T13:36:18.000Z,80.6
2022-11-15T13:37:30.000Z,80.6
2022-11-15T13:38:42.000Z,80.6
2022-11-15T13:39:54.000Z,80.6
2022-11-15T13:41:06.000Z,80.6
2022-11-15T13:42:19.000Z,80.7
2022-11-15T13:43:31.000Z,80.7
2022-11-15T13:44:43.000Z,80.7
2022-11-15T13:45:55.000Z,80.7
2022-11-15T13:47:07.000Z,80.7
2022-11-15T13:48:20.000Z,80.7
2022-11-15T13:49:31.000Z,80.7
2022-11-15T13:50:43.000Z,80.7
2022-11-15T13:51:55.000Z,80.7
2022-11-15T13:53:07.000Z,80.7
2022-11-15T13:55:32.000Z,80.7
2022-11-15T13:56:44.000Z,80.8
2022-11-15T13:57:56.000Z,80.8
2022-11-15T13:59:08.000Z,80.8
2022-11-15T14:00:20.000Z,80.8
2022-11-15T14:00:57.000Z,80.8
2022-11-15T14:01:33.000Z,80.8
2022-11-15T14:02:45.000Z,81
2022-11-15T14:03:57.000Z,81
2022-11-15T14:05:08.000Z,81
2022-11-15T14:06:20.000Z,81
2022-11-15T14:07:33.000Z,81
2022-11-15T14:08:45.000Z,81
2022-11-15T14:09:57.000Z,81.1
2022-11-15T14:11:09.000Z,81.1
2022-11-15T14:12:21.000Z,81.1
2022-11-15T14:13:33.000Z,81.1
2022-11-15T14:14:46.000Z,81.1
2022-11-15T14:15:58.000Z,81.1
2022-11-15T14:17:10.000Z,81.1
2022-11-15T14:18:22.000Z,81.1
2022-11-15T14:19:34.000Z,81.1
2022-11-15T14:20:46.000Z,81.1
2022-11-15T14:21:58.000Z,81.1
2022-11-15T14:23:10.000Z,81.1
2022-11-15T14:24:22.000Z,81.1
2022-11-15T14:25:34.000Z,81.1
2022-11-15T14:26:46.000Z,81.1
2022-11-15T14:27:59.000Z,81.1
2022-11-15T14:29:11.000Z,81.1
2022-11-15T14:30:23.000Z,81.1
2022-11-15T14:31:35.000Z,81.1
2022-11-15T14:32:47.000Z,81.1
2022-11-15T14:34:00.000Z,81.1
2022-11-15T14:35:12.000Z,81.1
2022-11-15T14:36:24.000Z,81.1
2022-11-15T14:37:36.000Z,81.1
2022-11-15T14:38:47.000Z,81.1
2022-11-15T14:40:00.000Z,81.1
2022-11-15T14:41:12.000Z,81.2
2022-11-15T14:42:24.000Z,81.3
2022-11-15T14:44:48.000Z,81.3
2022-11-15T14:46:00.000Z,81.3
2022-11-15T14:47:13.000Z,81.3
2022-11-15T14:48:25.000Z,81.3
2022-11-15T14:49:37.000Z,81.3
2022-11-15T14:50:14.552Z,81.3
2022-11-15T14:50:49.000Z,81.3
2022-11-15T14:52:01.000Z,81.3
2022-11-15T14:53:14.000Z,81.3
2022-11-15T14:54:25.000Z,81.3
2022-11-15T14:55:37.000Z,81.3
2022-11-15T14:56:49.000Z,81.3
2022-11-15T14:58:00.000Z,81.3
2022-11-15T14:59:13.000Z,81.4
2022-11-15T15:00:25.000Z,81.4
2022-11-15T15:01:37.000Z,81.4
2022-11-15T15:02:49.000Z,81.4
2022-11-15T15:04:01.000Z,81.4
2022-11-15T15:05:13.000Z,81.4
2022-11-15T15:06:26.000Z,81.4
2022-11-15T15:07:38.000Z,81.4
2022-11-15T15:08:50.000Z,81.4
2022-11-15T15:10:02.000Z,81.4
2022-11-15T15:11:14.000Z,81.4
2022-11-15T15:12:27.000Z,81.5
2022-11-15T15:13:39.000Z,81.5
2022-11-15T15:14:50.000Z,81.5
2022-11-15T15:16:02.000Z,81.5
2022-11-15T15:17:14.000Z,81.5
2022-11-15T15:18:26.000Z,81.5
2022-11-15T15:19:39.000Z,81.5
2022-11-15T15:20:51.000Z,81.5
2022-11-15T15:22:03.000Z,81.5
2022-11-15T15:23:15.000Z,81.5
2022-11-15T15:24:27.000Z,81.5
2022-11-15T15:25:40.000Z,81.6
2022-11-15T15:26:52.000Z,81.6
2022-11-15T15:28:04.000Z,81.6
2022-11-15T15:29:16.000Z,81.6
2022-11-15T15:30:27.000Z,81.6
2022-11-15T15:31:40.000Z,81.6
2022-11-15T15:32:52.000Z,81.6
2022-11-15T15:34:04.000Z,81.6
2022-11-15T15:35:16.000Z,81.6
2022-11-15T15:36:28.000Z,81.6
2022-11-15T15:37:40.000Z,81.6
2022-11-15T15:38:53.000Z,81.5
2022-11-15T15:40:05.000Z,81.6
2022-11-15T15:41:17.000Z,81.6
2022-11-15T15:42:29.000Z,81.6
2022-11-15T15:43:41.000Z,81.6
2022-11-15T15:44:54.000Z,81.5
2022-11-15T15:46:05.000Z,81.6
2022-11-15T15:47:17.000Z,81.6
2022-11-15T15:49:41.000Z,81.5
2022-11-15T15:50:53.000Z,81.5
2022-11-15T15:52:06.000Z,81.5
2022-11-15T15:53:18.000Z,81.5
2022-11-15T15:54:30.000Z,81.5
2022-11-15T15:55:07.592Z,81.5
2022-11-15T15:55:42.000Z,81.5
2022-11-15T15:56:54.000Z,81.5
2022-11-15T15:58:07.000Z,81.5
2022-11-15T15:59:19.000Z,81.6
2022-11-15T16:00:31.000Z,81.6
2022-11-15T16:01:42.000Z,81.6
2022-11-15T16:02:54.000Z,81.6
2022-11-15T16:04:07.000Z,81.6
2022-11-15T16:05:19.000Z,81.6
2022-11-15T16:06:31.000Z,81.6
2022-11-15T16:07:43.000Z,81.6